sensor_id;sensor_type;location;lat;lon;timestamp;P1;durP1;ratioP1;P2;durP2;ratioP2
13075;SDS011;6604;52.484;13.330;2022-12-07T07:49:34;17.77;;;8.60;;
13075;SDS011;6604;52.484;13.330;2022-12-07T07:52:01;19.33;;;8.90;;
13075;SDS011;6604;52.484;13.330;2022-12-07T07:54:27;14.13;;;8.10;;
13075;SDS011;6604;52.484;13.330;2022-12-07T07:56:54;17.57;;;9.37;;
13075;SDS011;6604;52.484;13.330;2022-12-07T07:59:20;13.00;;;7.63;;
13075;SDS011;6604;52.484;13.330;2022-12-07T08:01:47;13.67;;;7.10;;
13075;SDS011;6604;52.484;13.330;2022-12-07T08:04:13;10.90;;;6.57;;
13075;SDS011;6604;52.484;13.330;2022-12-07T08:06:44;13.83;;;7.10;;
13075;SDS011;6604;52.484;13.330;2022-12-07T08:09:11;13.83;;;7.17;;
13075;SDS011;6604;52.484;13.330;2022-12-07T08:11:38;10.60;;;5.97;;
13075;SDS011;6604;52.484;13.330;2022-12-07T08:14:04;12.97;;;6.80;;
13075;SDS011;6604;52.484;13.330;2022-12-07T08:16:31;12.00;;;6.43;;
13075;SDS011;6604;52.484;13.330;2022-12-07T08:18:57;9.77;;;5.67;;
13075;SDS011;6604;52.484;13.330;2022-12-07T08:21:24;11.40;;;5.70;;
13075;SDS011;6604;52.484;13.330;2022-12-07T08:23:51;10.30;;;5.00;;
13075;SDS011;6604;52.484;13.330;2022-12-07T08:26:18;11.83;;;4.87;;
13075;SDS011;6604;52.484;13.330;2022-12-07T08:28:45;14.40;;;6.40;;
13075;SDS011;6604;52.484;13.330;2022-12-07T08:31:12;9.90;;;4.00;;
13075;SDS011;6604;52.484;13.330;2022-12-07T08:33:39;11.33;;;4.63;;
13075;SDS011;6604;52.484;13.330;2022-12-07T08:36:07;5.67;;;3.40;;
13075;SDS011;6604;52.484;13.330;2022-12-07T08:38:34;3.60;;;2.70;;
13075;SDS011;6604;52.484;13.330;2022-12-07T08:41:02;4.13;;;2.67;;
13075;SDS011;6604;52.484;13.330;2022-12-07T08:43:30;3.97;;;2.50;;
13075;SDS011;6604;52.484;13.330;2022-12-07T08:46:02;3.53;;;2.10;;
13075;SDS011;6604;52.484;13.330;2022-12-07T08:48:30;3.40;;;1.70;;
13075;SDS011;6604;52.484;13.330;2022-12-07T08:50:57;6.00;;;2.00;;
13075;SDS011;6604;52.484;13.330;2022-12-07T08:53:23;4.70;;;2.03;;
13075;SDS011;6604;52.484;13.330;2022-12-07T08:55:50;2.50;;;2.30;;
13075;SDS011;6604;52.484;13.330;2022-12-07T08:58:21;4.77;;;3.50;;
13075;SDS011;6604;52.484;13.330;2022-12-07T09:00:48;2.20;;;1.90;;
13075;SDS011;6604;52.484;13.330;2022-12-07T09:03:15;3.00;;;1.73;;
13075;SDS011;6604;52.484;13.330;2022-12-07T09:05:42;1.70;;;1.60;;
13075;SDS011;6604;52.484;13.330;2022-12-07T09:08:08;1.67;;;1.57;;
13075;SDS011;6604;52.484;13.330;2022-12-07T09:10:35;2.90;;;1.83;;
13075;SDS011;6604;52.484;13.330;2022-12-07T09:13:02;4.13;;;1.70;;
13075;SDS011;6604;52.484;13.330;2022-12-07T09:15:29;1.90;;;1.80;;
13075;SDS011;6604;52.484;13.330;2022-12-07T09:17:56;2.80;;;1.97;;
13075;SDS011;6604;52.484;13.330;2022-12-07T09:20:22;2.30;;;1.80;;
13075;SDS011;6604;52.484;13.330;2022-12-07T09:22:49;2.10;;;1.80;;
13075;SDS011;6604;52.484;13.330;2022-12-07T09:25:15;1.87;;;1.70;;
13075;SDS011;6604;52.484;13.330;2022-12-07T09:27:42;3.13;;;2.10;;
13075;SDS011;6604;52.484;13.330;2022-12-07T09:30:09;3.17;;;2.60;;
13075;SDS011;6604;52.484;13.330;2022-12-07T09:32:37;6.23;;;3.33;;
13075;SDS011;6604;52.484;13.330;2022-12-07T09:35:04;5.03;;;2.60;;
13075;SDS011;6604;52.484;13.330;2022-12-07T09:37:30;2.13;;;1.47;;
13075;SDS011;6604;52.484;13.330;2022-12-07T09:40:00;2.70;;;2.13;;
13075;SDS011;6604;52.484;13.330;2022-12-07T09:42:27;2.63;;;2.10;;
13075;SDS011;6604;52.484;13.330;2022-12-07T09:44:55;4.13;;;1.73;;
13075;SDS011;6604;52.484;13.330;2022-12-07T09:47:21;2.27;;;1.93;;
13075;SDS011;6604;52.484;13.330;2022-12-07T09:49:49;2.43;;;1.80;;
13075;SDS011;6604;52.484;13.330;2022-12-07T09:52:19;2.17;;;1.87;;
13075;SDS011;6604;52.484;13.330;2022-12-07T09:54:48;5.63;;;2.80;;
13075;SDS011;6604;52.484;13.330;2022-12-07T09:57:17;2.77;;;2.17;;
13075;SDS011;6604;52.484;13.330;2022-12-07T09:59:46;2.53;;;2.20;;
13075;SDS011;6604;52.484;13.330;2022-12-07T10:02:24;4.20;;;2.03;;
13075;SDS011;6604;52.484;13.330;2022-12-07T10:04:52;3.70;;;2.60;;
13075;SDS011;6604;52.484;13.330;2022-12-07T10:07:19;2.00;;;1.80;;
13075;SDS011;6604;52.484;13.330;2022-12-07T10:09:45;2.70;;;2.30;;
13075;SDS011;6604;52.484;13.330;2022-12-07T10:12:12;2.17;;;1.97;;
13075;SDS011;6604;52.484;13.330;2022-12-07T10:14:39;3.47;;;2.10;;
13075;SDS011;6604;52.484;13.330;2022-12-07T10:19:47;2.77;;;2.20;;
13075;SDS011;6604;52.484;13.330;2022-12-07T10:22:17;2.67;;;2.03;;
13075;SDS011;6604;52.484;13.330;2022-12-07T10:24:46;2.70;;;2.10;;
13075;SDS011;6604;52.484;13.330;2022-12-07T10:27:17;2.60;;;2.10;;
13075;SDS011;6604;52.484;13.330;2022-12-07T10:29:47;2.23;;;2.03;;
13075;SDS011;6604;52.484;13.330;2022-12-07T10:32:26;1.97;;;1.77;;
13075;SDS011;6604;52.484;13.330;2022-12-07T10:34:59;2.73;;;2.00;;
13075;SDS011;6604;52.484;13.330;2022-12-07T10:37:40;2.33;;;1.73;;
13075;SDS011;6604;52.484;13.330;2022-12-07T10:40:22;2.63;;;2.00;;
13075;SDS011;6604;52.484;13.330;2022-12-07T10:42:51;2.77;;;2.00;;
13075;SDS011;6604;52.484;13.330;2022-12-07T10:45:26;2.60;;;2.10;;
13075;SDS011;6604;52.484;13.330;2022-12-07T10:47:54;3.13;;;2.37;;
13075;SDS011;6604;52.484;13.330;2022-12-07T10:50:37;3.37;;;1.93;;
13075;SDS011;6604;52.484;13.330;2022-12-07T10:53:12;7.97;;;2.93;;
13075;SDS011;6604;52.484;13.330;2022-12-07T10:55:47;4.10;;;2.80;;
13075;SDS011;6604;52.484;13.330;2022-12-07T10:58:27;2.53;;;2.10;;
13075;SDS011;6604;52.484;13.330;2022-12-07T11:00:58;2.50;;;2.30;;
13075;SDS011;6604;52.484;13.330;2022-12-07T11:03:33;3.20;;;2.50;;
13075;SDS011;6604;52.484;13.330;2022-12-07T11:06:09;3.87;;;2.70;;
13075;SDS011;6604;52.484;13.330;2022-12-07T11:08:44;3.40;;;2.73;;
13075;SDS011;6604;52.484;13.330;2022-12-07T11:11:13;4.23;;;2.80;;
13075;SDS011;6604;52.484;13.330;2022-12-07T11:13:43;3.03;;;2.70;;
13075;SDS011;6604;52.484;13.330;2022-12-07T11:16:19;4.33;;;2.77;;
13075;SDS011;6604;52.484;13.330;2022-12-07T11:21:36;5.37;;;2.60;;
13075;SDS011;6604;52.484;13.330;2022-12-07T11:24:09;4.97;;;2.40;;
13075;SDS011;6604;52.484;13.330;2022-12-07T11:26:41;3.40;;;2.63;;
13075;SDS011;6604;52.484;13.330;2022-12-07T11:29:18;3.00;;;2.50;;
13075;SDS011;6604;52.484;13.330;2022-12-07T11:31:50;3.70;;;2.60;;
13075;SDS011;6604;52.484;13.330;2022-12-07T11:34:21;5.93;;;2.73;;
13075;SDS011;6604;52.484;13.330;2022-12-07T11:36:51;3.47;;;2.57;;
13075;SDS011;6604;52.484;13.330;2022-12-07T11:39:22;3.80;;;2.80;;
13075;SDS011;6604;52.484;13.330;2022-12-07T11:41:52;5.50;;;2.60;;
13075;SDS011;6604;52.484;13.330;2022-12-07T11:44:24;2.63;;;2.40;;
13075;SDS011;6604;52.484;13.330;2022-12-07T11:46:53;3.77;;;2.83;;
13075;SDS011;6604;52.484;13.330;2022-12-07T11:49:23;6.23;;;3.23;;
13075;SDS011;6604;52.484;13.330;2022-12-07T11:51:54;6.03;;;3.20;;
13075;SDS011;6604;52.484;13.330;2022-12-07T11:54:24;3.00;;;2.70;;
13075;SDS011;6604;52.484;13.330;2022-12-07T11:56:52;2.80;;;2.30;;
13075;SDS011;6604;52.484;13.330;2022-12-07T11:59:22;10.73;;;2.50;;
13075;SDS011;6604;52.484;13.330;2022-12-07T12:01:51;8.93;;;3.10;;
13075;SDS011;6604;52.484;13.330;2022-12-07T12:04:23;5.80;;;2.67;;
13075;SDS011;6604;52.484;13.330;2022-12-07T12:06:51;2.57;;;2.33;;
13075;SDS011;6604;52.484;13.330;2022-12-07T12:09:19;3.27;;;2.00;;
13075;SDS011;6604;52.484;13.330;2022-12-07T12:11:54;2.80;;;2.00;;
13075;SDS011;6604;52.484;13.330;2022-12-07T12:14:41;3.20;;;2.20;;
13075;SDS011;6604;52.484;13.330;2022-12-07T12:17:15;4.23;;;2.27;;
13075;SDS011;6604;52.484;13.330;2022-12-07T12:19:45;3.90;;;1.93;;
13075;SDS011;6604;52.484;13.330;2022-12-07T12:22:24;3.63;;;1.87;;
13075;SDS011;6604;52.484;13.330;2022-12-07T12:24:54;7.93;;;1.90;;
13075;SDS011;6604;52.484;13.330;2022-12-07T12:27:23;8.00;;;1.93;;
13075;SDS011;6604;52.484;13.330;2022-12-07T12:29:51;3.97;;;2.00;;
13075;SDS011;6604;52.484;13.330;2022-12-07T12:32:19;8.17;;;1.83;;
13075;SDS011;6604;52.484;13.330;2022-12-07T12:37:44;2.63;;;1.77;;
13075;SDS011;6604;52.484;13.330;2022-12-07T12:42:57;5.50;;;1.97;;
13075;SDS011;6604;52.484;13.330;2022-12-07T12:45:25;5.93;;;1.90;;
13075;SDS011;6604;52.484;13.330;2022-12-07T12:47:56;5.67;;;1.73;;
13075;SDS011;6604;52.484;13.330;2022-12-07T12:50:24;4.40;;;1.80;;
13075;SDS011;6604;52.484;13.330;2022-12-07T13:04:16;3.77;;;2.30;;
13075;SDS011;6604;52.484;13.330;2022-12-07T13:06:43;3.73;;;1.77;;
13075;SDS011;6604;52.484;13.330;2022-12-07T13:09:17;5.87;;;2.40;;
13075;SDS011;6604;52.484;13.330;2022-12-07T13:11:45;2.33;;;2.07;;
13075;SDS011;6604;52.484;13.330;2022-12-07T13:16:57;2.83;;;1.93;;
13075;SDS011;6604;52.484;13.330;2022-12-07T13:19:54;1.70;;;1.50;;
13075;SDS011;6604;52.484;13.330;2022-12-07T13:25:19;2.90;;;1.90;;
13075;SDS011;6604;52.484;13.330;2022-12-07T13:27:48;2.90;;;1.60;;
13075;SDS011;6604;52.484;13.330;2022-12-07T13:30:18;3.80;;;1.80;;
13075;SDS011;6604;52.484;13.330;2022-12-07T13:32:50;2.90;;;1.80;;
13075;SDS011;6604;52.484;13.330;2022-12-07T13:35:32;3.50;;;1.90;;
13075;SDS011;6604;52.484;13.330;2022-12-07T13:37:59;3.43;;;1.50;;
13075;SDS011;6604;52.484;13.330;2022-12-07T13:40:27;2.87;;;1.83;;
13075;SDS011;6604;52.484;13.330;2022-12-07T13:42:57;3.30;;;1.80;;
13075;SDS011;6604;52.484;13.330;2022-12-07T13:45:24;7.23;;;1.70;;
13075;SDS011;6604;52.484;13.330;2022-12-07T13:48:13;1.63;;;1.53;;
13075;SDS011;6604;52.484;13.330;2022-12-07T13:50:42;6.17;;;1.90;;
13075;SDS011;6604;52.484;13.330;2022-12-07T13:53:11;2.43;;;1.50;;
13075;SDS011;6604;52.484;13.330;2022-12-07T13:55:38;4.13;;;1.70;;
13075;SDS011;6604;52.484;13.330;2022-12-07T13:58:10;3.97;;;2.20;;
13075;SDS011;6604;52.484;13.330;2022-12-07T14:00:36;4.53;;;1.87;;
13075;SDS011;6604;52.484;13.330;2022-12-07T14:03:04;4.60;;;1.70;;
13075;SDS011;6604;52.484;13.330;2022-12-07T14:05:31;4.70;;;1.50;;
13075;SDS011;6604;52.484;13.330;2022-12-07T14:08:00;1.73;;;1.40;;
13075;SDS011;6604;52.484;13.330;2022-12-07T14:10:27;5.47;;;1.70;;
13075;SDS011;6604;52.484;13.330;2022-12-07T14:12:54;3.27;;;2.10;;
13075;SDS011;6604;52.484;13.330;2022-12-07T14:15:22;2.77;;;1.60;;
13075;SDS011;6604;52.484;13.330;2022-12-07T14:17:49;6.17;;;1.77;;
13075;SDS011;6604;52.484;13.330;2022-12-07T14:20:29;2.80;;;1.80;;
13075;SDS011;6604;52.484;13.330;2022-12-07T14:22:56;5.77;;;1.73;;
13075;SDS011;6604;52.484;13.330;2022-12-07T14:25:25;2.00;;;1.60;;
13075;SDS011;6604;52.484;13.330;2022-12-07T14:27:53;6.77;;;1.70;;
13075;SDS011;6604;52.484;13.330;2022-12-07T14:30:21;8.40;;;1.93;;
13075;SDS011;6604;52.484;13.330;2022-12-07T14:32:50;1.50;;;1.40;;
13075;SDS011;6604;52.484;13.330;2022-12-07T14:35:18;3.70;;;1.60;;
13075;SDS011;6604;52.484;13.330;2022-12-07T14:37:46;2.60;;;1.60;;
13075;SDS011;6604;52.484;13.330;2022-12-07T14:40:13;4.00;;;1.70;;
13075;SDS011;6604;52.484;13.330;2022-12-07T14:42:41;5.63;;;1.50;;
13075;SDS011;6604;52.484;13.330;2022-12-07T14:45:11;3.87;;;1.63;;
13075;SDS011;6604;52.484;13.330;2022-12-07T14:47:39;4.10;;;1.70;;
13075;SDS011;6604;52.484;13.330;2022-12-07T14:50:06;5.43;;;1.73;;
13075;SDS011;6604;52.484;13.330;2022-12-07T14:52:33;5.37;;;1.90;;
13075;SDS011;6604;52.484;13.330;2022-12-07T14:55:00;3.57;;;1.80;;
13075;SDS011;6604;52.484;13.330;2022-12-07T14:57:26;4.77;;;2.03;;
13075;SDS011;6604;52.484;13.330;2022-12-07T14:59:54;4.83;;;1.70;;
13075;SDS011;6604;52.484;13.330;2022-12-07T15:02:20;6.40;;;2.03;;
13075;SDS011;6604;52.484;13.330;2022-12-07T15:04:47;3.60;;;1.50;;
13075;SDS011;6604;52.484;13.330;2022-12-07T15:07:15;7.17;;;1.50;;
13075;SDS011;6604;52.484;13.330;2022-12-07T15:09:43;3.37;;;1.50;;
13075;SDS011;6604;52.484;13.330;2022-12-07T15:12:09;2.93;;;1.40;;
13075;SDS011;6604;52.484;13.330;2022-12-07T15:14:36;12.33;;;2.00;;
13075;SDS011;6604;52.484;13.330;2022-12-07T15:17:04;3.53;;;1.73;;
13075;SDS011;6604;52.484;13.330;2022-12-07T15:19:31;5.47;;;1.73;;
13075;SDS011;6604;52.484;13.330;2022-12-07T15:21:58;6.77;;;1.57;;
13075;SDS011;6604;52.484;13.330;2022-12-07T15:24:25;3.00;;;1.60;;
13075;SDS011;6604;52.484;13.330;2022-12-07T15:26:51;5.97;;;1.83;;
13075;SDS011;6604;52.484;13.330;2022-12-07T15:29:18;3.67;;;1.87;;
13075;SDS011;6604;52.484;13.330;2022-12-07T15:31:44;6.80;;;1.60;;
13075;SDS011;6604;52.484;13.330;2022-12-07T15:34:12;5.90;;;1.67;;
13075;SDS011;6604;52.484;13.330;2022-12-07T15:36:39;10.43;;;1.80;;
13075;SDS011;6604;52.484;13.330;2022-12-07T15:39:05;4.13;;;1.80;;
13075;SDS011;6604;52.484;13.330;2022-12-07T15:41:32;5.43;;;1.70;;
13075;SDS011;6604;52.484;13.330;2022-12-07T15:43:58;2.70;;;1.80;;
13075;SDS011;6604;52.484;13.330;2022-12-07T15:46:42;3.13;;;1.43;;
13075;SDS011;6604;52.484;13.330;2022-12-07T15:49:10;5.03;;;1.77;;
13075;SDS011;6604;52.484;13.330;2022-12-07T15:51:38;5.80;;;1.70;;
13075;SDS011;6604;52.484;13.330;2022-12-07T15:54:05;6.00;;;2.00;;
13075;SDS011;6604;52.484;13.330;2022-12-07T15:56:32;4.87;;;1.80;;
13075;SDS011;6604;52.484;13.330;2022-12-07T15:58:58;4.40;;;1.30;;
13075;SDS011;6604;52.484;13.330;2022-12-07T16:01:25;4.53;;;1.60;;
13075;SDS011;6604;52.484;13.330;2022-12-07T16:03:51;2.33;;;1.57;;
13075;SDS011;6604;52.484;13.330;2022-12-07T16:06:18;5.00;;;2.00;;
13075;SDS011;6604;52.484;13.330;2022-12-07T16:08:46;6.27;;;1.77;;
13075;SDS011;6604;52.484;13.330;2022-12-07T16:11:13;3.90;;;1.47;;
13075;SDS011;6604;52.484;13.330;2022-12-07T16:13:39;5.43;;;1.57;;
13075;SDS011;6604;52.484;13.330;2022-12-07T16:16:07;3.10;;;1.83;;
13075;SDS011;6604;52.484;13.330;2022-12-07T16:18:34;4.83;;;2.03;;
13075;SDS011;6604;52.484;13.330;2022-12-07T16:21:00;7.87;;;1.63;;
13075;SDS011;6604;52.484;13.330;2022-12-07T16:23:27;2.53;;;1.70;;
13075;SDS011;6604;52.484;13.330;2022-12-07T16:26:00;2.10;;;1.50;;
13075;SDS011;6604;52.484;13.330;2022-12-07T16:28:29;5.57;;;1.80;;
13075;SDS011;6604;52.484;13.330;2022-12-07T16:30:59;2.97;;;1.50;;
13075;SDS011;6604;52.484;13.330;2022-12-07T16:33:26;2.70;;;1.40;;
13075;SDS011;6604;52.484;13.330;2022-12-07T16:35:52;4.33;;;1.83;;
13075;SDS011;6604;52.484;13.330;2022-12-07T16:38:19;3.20;;;1.60;;
13075;SDS011;6604;52.484;13.330;2022-12-07T16:40:46;3.10;;;1.70;;
13075;SDS011;6604;52.484;13.330;2022-12-07T16:43:14;3.77;;;1.57;;
13075;SDS011;6604;52.484;13.330;2022-12-07T16:45:41;3.50;;;1.60;;
13075;SDS011;6604;52.484;13.330;2022-12-07T16:48:08;3.37;;;1.67;;
13075;SDS011;6604;52.484;13.330;2022-12-07T16:50:34;5.60;;;1.70;;
13075;SDS011;6604;52.484;13.330;2022-12-07T16:53:04;3.57;;;1.53;;
13075;SDS011;6604;52.484;13.330;2022-12-07T16:55:31;4.53;;;1.27;;
13075;SDS011;6604;52.484;13.330;2022-12-07T16:57:58;5.73;;;2.00;;
13075;SDS011;6604;52.484;13.330;2022-12-07T17:00:26;5.03;;;1.83;;
13075;SDS011;6604;52.484;13.330;2022-12-07T17:02:52;3.43;;;1.47;;
13075;SDS011;6604;52.484;13.330;2022-12-07T17:05:20;3.70;;;1.80;;
13075;SDS011;6604;52.484;13.330;2022-12-07T17:07:46;1.70;;;1.43;;
13075;SDS011;6604;52.484;13.330;2022-12-07T17:10:13;7.00;;;2.00;;
13075;SDS011;6604;52.484;13.330;2022-12-07T17:12:39;3.07;;;1.70;;
13075;SDS011;6604;52.484;13.330;2022-12-07T17:15:06;5.17;;;1.90;;
13075;SDS011;6604;52.484;13.330;2022-12-07T17:17:52;6.90;;;1.70;;
13075;SDS011;6604;52.484;13.330;2022-12-07T17:20:20;6.07;;;3.70;;
13075;SDS011;6604;52.484;13.330;2022-12-07T17:22:47;3.83;;;1.80;;
13075;SDS011;6604;52.484;13.330;2022-12-07T17:25:14;4.87;;;1.83;;
13075;SDS011;6604;52.484;13.330;2022-12-07T17:27:41;4.70;;;1.73;;
13075;SDS011;6604;52.484;13.330;2022-12-07T17:30:07;3.30;;;1.63;;
13075;SDS011;6604;52.484;13.330;2022-12-07T17:32:34;2.90;;;1.70;;
13075;SDS011;6604;52.484;13.330;2022-12-07T17:35:03;19.50;;;6.70;;
13075;SDS011;6604;52.484;13.330;2022-12-07T17:37:29;3.70;;;1.60;;
13075;SDS011;6604;52.484;13.330;2022-12-07T17:39:56;3.17;;;1.70;;
13075;SDS011;6604;52.484;13.330;2022-12-07T17:42:23;4.20;;;2.00;;
13075;SDS011;6604;52.484;13.330;2022-12-07T17:45:06;5.23;;;1.70;;
13075;SDS011;6604;52.484;13.330;2022-12-07T17:47:34;4.30;;;1.67;;
13075;SDS011;6604;52.484;13.330;2022-12-07T17:50:00;6.53;;;1.90;;
13075;SDS011;6604;52.484;13.330;2022-12-07T17:52:28;8.13;;;2.27;;
13075;SDS011;6604;52.484;13.330;2022-12-07T17:55:12;6.67;;;2.03;;
13075;SDS011;6604;52.484;13.330;2022-12-07T17:57:39;3.33;;;1.40;;
13075;SDS011;6604;52.484;13.330;2022-12-07T18:00:06;6.87;;;1.80;;
13075;SDS011;6604;52.484;13.330;2022-12-07T18:02:33;2.97;;;1.50;;
13075;SDS011;6604;52.484;13.330;2022-12-07T18:05:00;2.87;;;1.73;;
13075;SDS011;6604;52.484;13.330;2022-12-07T18:07:26;4.17;;;1.63;;
13075;SDS011;6604;52.484;13.330;2022-12-07T18:09:54;6.03;;;1.90;;
13075;SDS011;6604;52.484;13.330;2022-12-07T18:12:21;6.63;;;3.10;;
13075;SDS011;6604;52.484;13.330;2022-12-07T18:14:48;5.97;;;2.70;;
13075;SDS011;6604;52.484;13.330;2022-12-07T18:17:15;3.63;;;2.00;;
13075;SDS011;6604;52.484;13.330;2022-12-07T18:19:41;2.33;;;1.70;;
13075;SDS011;6604;52.484;13.330;2022-12-07T18:22:08;3.33;;;1.70;;
13075;SDS011;6604;52.484;13.330;2022-12-07T18:24:35;6.57;;;1.97;;
13075;SDS011;6604;52.484;13.330;2022-12-07T18:27:03;4.53;;;1.97;;
13075;SDS011;6604;52.484;13.330;2022-12-07T18:29:30;3.77;;;1.63;;
13075;SDS011;6604;52.484;13.330;2022-12-07T18:31:57;3.20;;;1.83;;
13075;SDS011;6604;52.484;13.330;2022-12-07T18:34:23;3.70;;;2.00;;
13075;SDS011;6604;52.484;13.330;2022-12-07T18:36:52;5.97;;;2.10;;
13075;SDS011;6604;52.484;13.330;2022-12-07T18:39:20;3.40;;;2.07;;
13075;SDS011;6604;52.484;13.330;2022-12-07T18:41:46;6.70;;;2.23;;
13075;SDS011;6604;52.484;13.330;2022-12-07T18:44:15;5.93;;;2.50;;
13075;SDS011;6604;52.484;13.330;2022-12-07T18:46:41;6.57;;;2.00;;
13075;SDS011;6604;52.484;13.330;2022-12-07T18:49:08;6.80;;;2.43;;
13075;SDS011;6604;52.484;13.330;2022-12-07T18:51:36;4.57;;;1.90;;
13075;SDS011;6604;52.484;13.330;2022-12-07T18:54:02;4.07;;;2.33;;
13075;SDS011;6604;52.484;13.330;2022-12-07T18:56:29;3.60;;;2.40;;
13075;SDS011;6604;52.484;13.330;2022-12-07T18:58:57;3.23;;;2.40;;
13075;SDS011;6604;52.484;13.330;2022-12-07T19:01:42;3.63;;;2.17;;
13075;SDS011;6604;52.484;13.330;2022-12-07T19:04:09;5.37;;;2.60;;
13075;SDS011;6604;52.484;13.330;2022-12-07T19:06:36;2.37;;;2.10;;
13075;SDS011;6604;52.484;13.330;2022-12-07T19:09:03;4.67;;;2.40;;
13075;SDS011;6604;52.484;13.330;2022-12-07T19:11:30;3.97;;;2.00;;
13075;SDS011;6604;52.484;13.330;2022-12-07T19:14:15;6.33;;;2.50;;
13075;SDS011;6604;52.484;13.330;2022-12-07T19:16:44;2.63;;;2.20;;
13075;SDS011;6604;52.484;13.330;2022-12-07T19:19:10;5.17;;;2.37;;
13075;SDS011;6604;52.484;13.330;2022-12-07T19:21:37;4.40;;;2.40;;
13075;SDS011;6604;52.484;13.330;2022-12-07T19:24:04;4.50;;;2.00;;
13075;SDS011;6604;52.484;13.330;2022-12-07T19:26:32;4.33;;;2.40;;
13075;SDS011;6604;52.484;13.330;2022-12-07T19:28:58;2.87;;;2.30;;
13075;SDS011;6604;52.484;13.330;2022-12-07T19:31:25;3.67;;;2.40;;
13075;SDS011;6604;52.484;13.330;2022-12-07T19:33:53;4.63;;;2.30;;
13075;SDS011;6604;52.484;13.330;2022-12-07T19:36:19;3.90;;;2.47;;
13075;SDS011;6604;52.484;13.330;2022-12-07T19:38:46;8.43;;;2.70;;
13075;SDS011;6604;52.484;13.330;2022-12-07T19:41:15;4.07;;;2.77;;
13075;SDS011;6604;52.484;13.330;2022-12-07T19:43:55;5.33;;;2.77;;
13075;SDS011;6604;52.484;13.330;2022-12-07T19:46:22;4.93;;;2.47;;
13075;SDS011;6604;52.484;13.330;2022-12-07T19:48:48;7.83;;;2.83;;
13075;SDS011;6604;52.484;13.330;2022-12-07T19:51:16;9.63;;;2.70;;
13075;SDS011;6604;52.484;13.330;2022-12-07T19:53:43;9.10;;;2.63;;
13075;SDS011;6604;52.484;13.330;2022-12-07T19:56:12;5.73;;;2.37;;
13075;SDS011;6604;52.484;13.330;2022-12-07T19:58:39;4.80;;;2.47;;
13075;SDS011;6604;52.484;13.330;2022-12-07T20:01:05;5.33;;;2.50;;
13075;SDS011;6604;52.484;13.330;2022-12-07T20:03:32;5.07;;;2.93;;
13075;SDS011;6604;52.484;13.330;2022-12-07T20:05:58;3.77;;;2.50;;
13075;SDS011;6604;52.484;13.330;2022-12-07T20:08:26;4.77;;;2.37;;
13075;SDS011;6604;52.484;13.330;2022-12-07T20:10:53;6.10;;;2.57;;
13075;SDS011;6604;52.484;13.330;2022-12-07T20:13:20;4.53;;;2.50;;
13075;SDS011;6604;52.484;13.330;2022-12-07T20:15:55;5.17;;;2.40;;
13075;SDS011;6604;52.484;13.330;2022-12-07T20:18:22;5.50;;;2.60;;
13075;SDS011;6604;52.484;13.330;2022-12-07T20:20:52;4.97;;;2.40;;
13075;SDS011;6604;52.484;13.330;2022-12-07T20:23:20;3.77;;;2.60;;
13075;SDS011;6604;52.484;13.330;2022-12-07T20:25:48;5.20;;;2.50;;
13075;SDS011;6604;52.484;13.330;2022-12-07T20:28:15;3.77;;;2.30;;
13075;SDS011;6604;52.484;13.330;2022-12-07T20:30:44;4.97;;;2.57;;
13075;SDS011;6604;52.484;13.330;2022-12-07T20:33:11;6.20;;;2.40;;
13075;SDS011;6604;52.484;13.330;2022-12-07T20:35:38;5.17;;;2.40;;
13075;SDS011;6604;52.484;13.330;2022-12-07T20:38:04;5.10;;;2.70;;
13075;SDS011;6604;52.484;13.330;2022-12-07T20:40:31;6.47;;;2.60;;
13075;SDS011;6604;52.484;13.330;2022-12-07T20:42:59;3.87;;;2.60;;
13075;SDS011;6604;52.484;13.330;2022-12-07T20:45:24;4.53;;;2.97;;
13075;SDS011;6604;52.484;13.330;2022-12-07T20:47:51;4.53;;;2.50;;
13075;SDS011;6604;52.484;13.330;2022-12-07T20:50:18;2.70;;;2.40;;
13075;SDS011;6604;52.484;13.330;2022-12-07T20:52:44;3.20;;;2.67;;
13075;SDS011;6604;52.484;13.330;2022-12-07T20:55:11;5.13;;;2.87;;
13075;SDS011;6604;52.484;13.330;2022-12-07T20:57:37;8.03;;;2.90;;
13075;SDS011;6604;52.484;13.330;2022-12-07T21:00:07;4.83;;;2.80;;
13075;SDS011;6604;52.484;13.330;2022-12-07T21:02:34;7.03;;;3.03;;
13075;SDS011;6604;52.484;13.330;2022-12-07T21:05:01;5.20;;;2.70;;
13075;SDS011;6604;52.484;13.330;2022-12-07T21:07:27;6.73;;;2.90;;
13075;SDS011;6604;52.484;13.330;2022-12-07T21:09:54;4.47;;;2.27;;
13075;SDS011;6604;52.484;13.330;2022-12-07T21:12:20;3.50;;;2.50;;
13075;SDS011;6604;52.484;13.330;2022-12-07T21:14:47;5.30;;;2.90;;
13075;SDS011;6604;52.484;13.330;2022-12-07T21:17:15;4.60;;;2.40;;
13075;SDS011;6604;52.484;13.330;2022-12-07T21:19:41;5.87;;;2.63;;
13075;SDS011;6604;52.484;13.330;2022-12-07T21:22:08;5.17;;;2.63;;
13075;SDS011;6604;52.484;13.330;2022-12-07T21:24:34;7.43;;;3.23;;
13075;SDS011;6604;52.484;13.330;2022-12-07T21:27:03;4.50;;;2.73;;
13075;SDS011;6604;52.484;13.330;2022-12-07T21:29:30;3.27;;;2.63;;
13075;SDS011;6604;52.484;13.330;2022-12-07T21:31:57;3.90;;;2.20;;
13075;SDS011;6604;52.484;13.330;2022-12-07T21:34:25;6.37;;;2.87;;
13075;SDS011;6604;52.484;13.330;2022-12-07T21:36:51;6.00;;;2.80;;
13075;SDS011;6604;52.484;13.330;2022-12-07T21:39:17;5.70;;;2.63;;
13075;SDS011;6604;52.484;13.330;2022-12-07T21:41:44;4.80;;;2.83;;
13075;SDS011;6604;52.484;13.330;2022-12-07T21:44:10;5.40;;;2.73;;
13075;SDS011;6604;52.484;13.330;2022-12-07T21:46:37;3.97;;;2.50;;
13075;SDS011;6604;52.484;13.330;2022-12-07T21:49:05;5.47;;;2.90;;
13075;SDS011;6604;52.484;13.330;2022-12-07T21:51:33;7.73;;;2.70;;
13075;SDS011;6604;52.484;13.330;2022-12-07T21:54:00;4.57;;;2.50;;
13075;SDS011;6604;52.484;13.330;2022-12-07T21:56:27;6.03;;;2.90;;
13075;SDS011;6604;52.484;13.330;2022-12-07T21:58:57;3.17;;;2.40;;
13075;SDS011;6604;52.484;13.330;2022-12-07T22:01:25;10.00;;;4.97;;
13075;SDS011;6604;52.484;13.330;2022-12-07T22:03:52;9.20;;;3.77;;
13075;SDS011;6604;52.484;13.330;2022-12-07T22:06:20;6.83;;;3.10;;
13075;SDS011;6604;52.484;13.330;2022-12-07T22:08:48;4.17;;;2.97;;
13075;SDS011;6604;52.484;13.330;2022-12-07T22:11:15;5.60;;;3.20;;
13075;SDS011;6604;52.484;13.330;2022-12-07T22:13:42;6.53;;;3.10;;
13075;SDS011;6604;52.484;13.330;2022-12-07T22:16:26;3.40;;;2.80;;
13075;SDS011;6604;52.484;13.330;2022-12-07T22:18:53;6.97;;;3.00;;
13075;SDS011;6604;52.484;13.330;2022-12-07T22:21:21;6.87;;;3.30;;
13075;SDS011;6604;52.484;13.330;2022-12-07T22:23:50;4.43;;;3.03;;
13075;SDS011;6604;52.484;13.330;2022-12-07T22:26:17;6.77;;;3.43;;
13075;SDS011;6604;52.484;13.330;2022-12-07T22:28:44;6.33;;;3.77;;
